Time;durP1;ratioP1;P1;durP2;ratioP2;P2;SDS_P1;SDS_P2;PMS_P1;PMS_P2;Temp;Humidity;BMP_temperature;BMP_pressure;BME280_temperature;BME280_humidity;BME280_pressure;Samples;Min_cycle;Max_cycle;Signal;HPM_P1;HPM_P2
2022/10/10 00:01:01;;;;;;;1.00;0.40;;;8.30;99.90;;;;;;5046104;28;20025;-82
2022/10/10 00:03:26;;;;;;;1.73;0.50;;;8.30;99.90;;;;;;5028064;28;20041;-82
2022/10/10 00:05:52;;;;;;;1.35;0.40;;;8.20;99.90;;;;;;5062976;28;20021;-82
2022/10/10 00:08:18;;;;;;;2.00;0.55;;;8.20;99.90;;;;;;5012737;28;20107;-82
2022/10/10 00:10:43;;;;;;;1.55;0.70;;;8.20;99.90;;;;;;5029629;28;20049;-81
2022/10/10 00:13:09;;;;;;;1.73;0.50;;;8.20;99.90;;;;;;5046653;28;20032;-82
2022/10/10 00:15:34;;;;;;;2.92;0.45;;;8.30;99.90;;;;;;5045974;28;20025;-82
2022/10/10 00:18:01;;;;;;;1.30;0.50;;;8.20;99.90;;;;;;5029280;28;20392;-82
2022/10/10 00:20:27;;;;;;;1.95;0.98;;;8.20;99.90;;;;;;5029728;28;20072;-82
2022/10/10 00:22:52;;;;;;;1.40;0.50;;;8.10;99.90;;;;;;5029040;28;20068;-82
2022/10/10 00:25:18;;;;;;;1.20;0.50;;;8.10;99.90;;;;;;5027969;28;20036;-82
2022/10/10 00:27:43;;;;;;;2.22;0.45;;;8.10;99.90;;;;;;5029270;28;20025;-81
2022/10/10 00:30:10;;;;;;;2.83;0.55;;;8.00;99.90;;;;;;5012662;28;20025;-82
2022/10/10 00:32:35;;;;;;;1.52;0.43;;;8.10;99.90;;;;;;5045990;28;20405;-82
2022/10/10 00:35:02;;;;;;;1.15;0.50;;;8.00;99.90;;;;;;5046277;28;20029;-82
2022/10/10 00:37:28;;;;;;;1.23;0.50;;;8.00;99.90;;;;;;5043223;28;20525;-81
2022/10/10 00:39:53;;;;;;;2.20;0.55;;;8.10;99.90;;;;;;5046703;28;20098;-82
2022/10/10 00:42:19;;;;;;;1.15;0.50;;;7.90;99.90;;;;;;5028776;28;20061;-82
2022/10/10 00:45:06;;;;;;;1.45;0.50;;;7.90;99.90;;;;;;5029353;28;20067;-82
2022/10/10 00:47:32;;;;;;;1.60;0.50;;;7.90;99.90;;;;;;5028263;28;20072;-82
2022/10/10 00:49:58;;;;;;;3.45;0.50;;;7.90;99.90;;;;;;5046763;28;20123;-82
2022/10/10 00:52:23;;;;;;;1.70;0.60;;;7.80;99.90;;;;;;5046626;28;20109;-82
2022/10/10 00:54:49;;;;;;;3.45;0.57;;;7.80;99.90;;;;;;5029047;28;20476;-82
2022/10/10 00:57:15;;;;;;;1.85;0.65;;;7.80;99.90;;;;;;5046308;28;20108;-81
2022/10/10 00:59:42;;;;;;;1.50;0.50;;;7.80;99.90;;;;;;5062494;28;20037;-81
2022/10/10 01:02:08;;;;;;;1.60;0.60;;;7.80;99.90;;;;;;5044820;28;20099;-82
2022/10/10 01:04:41;;;;;;;1.40;0.60;;;7.80;99.90;;;;;;5029750;28;20036;-82
2022/10/10 01:07:11;;;;;;;1.73;0.50;;;7.80;99.90;;;;;;5064693;28;20025;-82
2022/10/10 01:09:39;;;;;;;1.27;0.50;;;7.80;99.90;;;;;;5032587;28;20029;-82
2022/10/10 01:12:17;;;;;;;2.05;0.60;;;7.70;99.90;;;;;;5050145;28;20025;-82
2022/10/10 01:14:56;;;;;;;1.40;0.50;;;7.70;99.90;;;;;;5033375;28;20021;-82
2022/10/10 01:17:46;;;;;;;1.98;0.50;;;7.70;99.90;;;;;;5049410;28;20495;-82
2022/10/10 01:20:36;;;;;;;1.73;0.55;;;7.70;99.90;;;;;;5031338;28;20029;-82
2022/10/10 01:23:17;;;;;;;1.88;0.50;;;7.80;99.90;;;;;;5031861;28;20526;-82
2022/10/10 01:26:01;;;;;;;1.58;0.60;;;7.70;99.90;;;;;;5065953;28;20052;-82
2022/10/10 01:28:44;;;;;;;1.13;0.50;;;7.70;99.90;;;;;;5050153;28;20114;-82
2022/10/10 01:31:12;;;;;;;1.35;0.50;;;7.70;99.90;;;;;;5031960;28;20028;-81
2022/10/10 01:33:57;;;;;;;1.25;0.50;;;7.80;99.90;;;;;;5032569;28;20110;-82
2022/10/10 01:36:51;;;;;;;1.65;0.60;;;7.80;99.90;;;;;;5047415;28;20044;-82
2022/10/10 01:39:31;;;;;;;1.67;0.40;;;7.80;99.90;;;;;;5032017;28;20025;-82
2022/10/10 01:42:06;;;;;;;1.25;0.40;;;7.80;99.90;;;;;;5032802;28;20052;-82
2022/10/10 01:44:32;;;;;;;1.13;0.50;;;7.80;99.90;;;;;;5062502;28;20025;-82
2022/10/10 01:46:58;;;;;;;1.60;0.50;;;7.80;99.90;;;;;;5049118;28;20032;-82
2022/10/10 01:49:29;;;;;;;1.67;0.52;;;7.80;99.90;;;;;;5032256;28;20492;-81
2022/10/10 01:52:06;;;;;;;3.53;0.65;;;7.80;99.90;;;;;;5049686;28;20392;-82
2022/10/10 01:54:35;;;;;;;1.63;0.50;;;7.80;99.90;;;;;;5031377;28;20072;-82
2022/10/10 01:57:26;;;;;;;2.25;0.70;;;7.80;99.90;;;;;;5031708;28;20108;-82
2022/10/10 02:00:09;;;;;;;1.38;0.50;;;7.80;99.90;;;;;;5031825;28;20029;-82
2022/10/10 02:02:39;;;;;;;2.00;0.50;;;7.80;99.90;;;;;;5050472;28;20037;-82
2022/10/10 02:05:40;;;;;;;2.72;0.52;;;7.80;99.90;;;;;;5050059;28;20528;-82
2022/10/10 02:08:14;;;;;;;2.60;0.60;;;7.80;99.90;;;;;;5027256;28;20071;-82
2022/10/10 02:10:45;;;;;;;1.40;0.50;;;7.90;99.90;;;;;;5027168;28;20026;-82
2022/10/10 02:13:14;;;;;;;3.28;0.60;;;7.80;99.90;;;;;;5024763;28;20524;-82
2022/10/10 02:15:44;;;;;;;1.73;0.60;;;7.80;99.90;;;;;;5008810;28;20420;-82
2022/10/10 02:18:11;;;;;;;;;;;7.80;99.90;;;;;;5026943;28;20025;-82
2022/10/10 02:20:37;;;;;;;1.85;0.50;;;7.70;99.90;;;;;;5009343;28;19967;-82
2022/10/10 02:23:06;;;;;;;2.78;0.50;;;7.70;99.90;;;;;;5009261;28;20041;-82
2022/10/10 02:25:38;;;;;;;1.35;0.70;;;7.70;99.90;;;;;;5010201;28;20029;-82
2022/10/10 02:28:21;;;;;;;1.65;0.70;;;7.70;99.90;;;;;;5025318;28;20151;-82
2022/10/10 02:30:51;;;;;;;2.45;0.50;;;7.70;99.90;;;;;;5008323;28;20063;-82
2022/10/10 02:33:21;;;;;;;3.10;0.50;;;7.70;99.90;;;;;;5010175;28;20092;-82
2022/10/10 02:35:51;;;;;;;1.95;0.50;;;7.70;99.90;;;;;;5008400;28;20292;-82
2022/10/10 02:38:17;;;;;;;1.37;0.53;;;7.80;99.90;;;;;;4993508;28;20079;-82
2022/10/10 02:40:46;;;;;;;1.35;0.52;;;7.70;99.90;;;;;;5026394;28;20037;-82
2022/10/10 02:43:13;;;;;;;1.63;0.60;;;7.70;99.90;;;;;;5024835;28;20048;-82
2022/10/10 02:45:41;;;;;;;1.35;0.50;;;7.70;99.90;;;;;;5024662;28;20029;-82
2022/10/10 02:48:07;;;;;;;2.17;0.60;;;7.70;99.90;;;;;;5046920;28;20062;-82
2022/10/10 02:50:33;;;;;;;1.75;0.63;;;7.70;99.90;;;;;;5030552;28;20028;-82
2022/10/10 02:52:59;;;;;;;1.30;0.50;;;7.70;99.90;;;;;;5030339;28;20029;-82
2022/10/10 02:55:25;;;;;;;1.63;0.50;;;7.70;99.90;;;;;;5063162;28;20037;-82
2022/10/10 02:57:52;;;;;;;1.98;0.50;;;7.70;99.90;;;;;;5031270;28;20100;-82
2022/10/10 03:00:18;;;;;;;1.65;0.52;;;7.70;99.90;;;;;;5036484;28;20024;-82
2022/10/10 03:02:45;;;;;;;1.30;0.43;;;7.60;99.90;;;;;;5029226;28;20100;-81
2022/10/10 03:05:11;;;;;;;1.65;0.60;;;7.70;99.90;;;;;;5029716;28;20485;-81
2022/10/10 03:07:37;;;;;;;3.60;0.70;;;7.70;99.90;;;;;;5049281;28;20173;-82
2022/10/10 03:10:04;;;;;;;1.70;0.60;;;7.70;99.90;;;;;;5047083;28;20541;-82
2022/10/10 03:12:30;;;;;;;2.53;0.52;;;7.60;99.90;;;;;;5046213;28;20508;-82
2022/10/10 03:14:55;;;;;;;2.28;0.52;;;7.70;99.90;;;;;;5030592;28;20024;-82
2022/10/10 03:17:21;;;;;;;1.75;0.50;;;7.60;99.90;;;;;;5048322;28;20039;-82
2022/10/10 03:19:46;;;;;;;1.42;0.50;;;7.60;99.90;;;;;;5029848;28;20029;-82
2022/10/10 03:22:12;;;;;;;1.58;0.50;;;7.60;99.90;;;;;;5048148;28;20048;-82
2022/10/10 03:24:38;;;;;;;1.15;0.50;;;7.50;99.90;;;;;;5030364;28;20052;-82
2022/10/10 03:27:06;;;;;;;2.05;0.50;;;7.60;99.90;;;;;;5014080;28;20033;-82
2022/10/10 03:29:31;;;;;;;1.10;0.50;;;7.60;99.90;;;;;;5010324;28;20029;-81
2022/10/10 03:31:57;;;;;;;1.23;0.40;;;7.50;99.90;;;;;;5048252;28;20035;-82
2022/10/10 03:34:23;;;;;;;2.70;0.60;;;7.50;99.90;;;;;;5012502;28;20043;-82
2022/10/10 03:36:48;;;;;;;1.42;0.70;;;7.60;99.90;;;;;;5030310;28;20033;-81
2022/10/10 03:39:14;;;;;;;2.58;0.60;;;7.60;99.90;;;;;;5013534;28;20028;-82
2022/10/10 03:41:39;;;;;;;2.33;0.50;;;7.60;99.90;;;;;;5013527;28;20052;-82
2022/10/10 03:44:05;;;;;;;1.30;0.50;;;7.60;99.90;;;;;;5047863;28;20426;-82
2022/10/10 03:46:31;;;;;;;1.83;0.63;;;7.60;99.90;;;;;;5062140;28;20025;-82
2022/10/10 03:48:56;;;;;;;2.92;0.68;;;7.60;99.90;;;;;;5044485;28;20053;-82
2022/10/10 03:51:22;;;;;;;2.40;0.70;;;7.60;99.90;;;;;;5029037;28;20061;-82
2022/10/10 03:53:48;;;;;;;2.20;0.50;;;7.60;99.90;;;;;;5029633;28;20041;-82
2022/10/10 03:56:13;;;;;;;1.98;0.73;;;7.60;99.90;;;;;;5028279;28;20047;-82
2022/10/10 03:58:39;;;;;;;2.08;0.68;;;7.60;99.90;;;;;;5045494;28;20033;-82
2022/10/10 04:01:04;;;;;;;1.80;0.50;;;7.60;99.90;;;;;;5046689;28;20020;-82
2022/10/10 04:03:30;;;;;;;1.30;0.50;;;7.60;99.90;;;;;;5029983;28;20079;-83
2022/10/10 04:05:56;;;;;;;1.55;0.55;;;7.60;99.90;;;;;;5013382;28;20021;-82
2022/10/10 04:08:23;;;;;;;2.50;0.70;;;7.60;99.90;;;;;;5027249;28;20065;-82
2022/10/10 04:10:51;;;;;;;1.63;0.60;;;7.60;99.90;;;;;;5045610;28;20112;-82
2022/10/10 04:13:17;;;;;;;2.08;0.60;;;7.60;99.90;;;;;;5029523;28;20477;-82
2022/10/10 04:15:43;;;;;;;1.85;0.57;;;7.60;99.90;;;;;;5062660;28;20053;-82
2022/10/10 04:18:09;;;;;;;1.50;0.52;;;7.70;99.90;;;;;;5029022;28;20068;-82
2022/10/10 04:20:35;;;;;;;1.40;0.50;;;7.70;99.90;;;;;;5046826;28;20500;-82
2022/10/10 04:23:00;;;;;;;2.03;0.70;;;7.70;99.90;;;;;;5047560;28;20041;-82
2022/10/10 04:25:27;;;;;;;1.60;0.70;;;7.70;99.90;;;;;;5028254;28;20273;-83
2022/10/10 04:27:53;;;;;;;1.60;0.50;;;7.70;99.90;;;;;;5045778;28;20025;-82
2022/10/10 04:30:19;;;;;;;2.97;0.70;;;7.70;99.90;;;;;;5062471;28;20051;-82
2022/10/10 04:32:44;;;;;;;2.17;0.63;;;7.60;99.90;;;;;;5029148;28;20025;-83
2022/10/10 04:35:10;;;;;;;1.60;0.50;;;7.60;99.90;;;;;;5028886;28;20039;-83
2022/10/10 04:37:36;;;;;;;3.50;0.68;;;7.70;99.90;;;;;;5047781;28;20017;-83
2022/10/10 04:40:02;;;;;;;1.85;0.80;;;7.70;99.90;;;;;;5064801;28;20025;-82
2022/10/10 04:42:28;;;;;;;2.00;0.70;;;7.60;99.90;;;;;;5032408;28;20061;-82
2022/10/10 04:44:54;;;;;;;1.83;0.60;;;7.60;99.90;;;;;;5033744;28;20082;-83
2022/10/10 04:47:19;;;;;;;1.65;0.60;;;7.60;99.90;;;;;;5032512;28;20037;-83
2022/10/10 04:49:45;;;;;;;2.00;0.70;;;7.50;99.90;;;;;;5050373;28;20036;-83
2022/10/10 04:52:11;;;;;;;1.50;0.60;;;7.50;99.90;;;;;;5048514;28;20032;-82
2022/10/10 04:54:37;;;;;;;3.47;0.70;;;7.50;99.90;;;;;;5033568;28;20028;-83
2022/10/10 04:57:03;;;;;;;1.60;0.60;;;7.50;99.90;;;;;;5050797;28;20487;-82
2022/10/10 04:59:29;;;;;;;1.55;0.80;;;7.50;99.90;;;;;;5048365;28;20025;-83
2022/10/10 05:01:55;;;;;;;1.88;0.60;;;7.50;99.90;;;;;;5049595;28;20040;-82
2022/10/10 05:04:20;;;;;;;1.70;0.70;;;7.50;99.90;;;;;;5032968;28;20032;-83
2022/10/10 05:06:46;;;;;;;2.35;0.60;;;7.40;99.90;;;;;;5051112;28;20051;-84
2022/10/10 05:09:12;;;;;;;1.30;0.60;;;7.40;99.90;;;;;;5016352;28;20029;-83
2022/10/10 05:11:37;;;;;;;1.58;0.50;;;7.50;99.90;;;;;;5051280;28;20398;-84
2022/10/10 05:14:03;;;;;;;2.25;0.60;;;7.40;99.90;;;;;;5049383;28;20387;-83
2022/10/10 05:16:29;;;;;;;1.40;0.63;;;7.40;99.90;;;;;;5065214;28;20492;-83
2022/10/10 05:18:56;;;;;;;2.25;0.75;;;7.30;99.90;;;;;;5033222;28;20477;-83
2022/10/10 05:21:22;;;;;;;4.30;0.60;;;7.40;99.90;;;;;;5031779;28;20037;-83
2022/10/10 05:23:48;;;;;;;1.92;0.60;;;7.30;99.90;;;;;;5065643;28;20043;-83
2022/10/10 05:26:14;;;;;;;1.75;0.60;;;7.30;99.90;;;;;;5032369;28;20119;-83
2022/10/10 05:28:39;;;;;;;1.88;0.60;;;7.30;99.90;;;;;;5050734;28;20104;-82
2022/10/10 05:31:06;;;;;;;1.73;0.80;;;7.20;99.90;;;;;;5016146;28;20021;-82
2022/10/10 05:33:33;;;;;;;4.45;0.80;;;7.30;99.90;;;;;;5031974;28;20436;-83
2022/10/10 05:36:08;;;;;;;2.28;0.70;;;7.30;99.90;;;;;;5047283;28;20396;-83
2022/10/10 05:38:34;;;;;;;2.05;0.60;;;7.20;99.90;;;;;;5064885;28;20040;-83
2022/10/10 05:40:59;;;;;;;2.78;0.70;;;7.20;99.90;;;;;;5048841;28;20087;-83
2022/10/10 05:43:25;;;;;;;1.83;0.60;;;7.20;99.90;;;;;;5028349;28;20444;-83
2022/10/10 05:45:51;;;;;;;1.60;0.50;;;7.10;99.90;;;;;;5029621;28;20025;-82
2022/10/10 05:48:17;;;;;;;2.70;0.80;;;7.20;99.90;;;;;;5064556;28;20025;-83
2022/10/10 05:51:14;;;;;;;1.90;0.80;;;7.20;99.90;;;;;;5049366;28;20017;-84
2022/10/10 05:53:39;;;;;;;2.85;0.60;;;7.20;99.90;;;;;;5013891;28;20033;-82
2022/10/10 05:56:05;;;;;;;1.75;0.70;;;7.10;99.90;;;;;;5049208;28;20381;-82
2022/10/10 05:58:31;;;;;;;1.80;0.75;;;7.10;99.90;;;;;;5014451;28;20086;-82
2022/10/10 06:01:02;;;;;;;2.13;0.60;;;7.10;99.90;;;;;;5049029;28;20029;-83
2022/10/10 06:03:28;;;;;;;1.65;0.60;;;7.10;99.90;;;;;;5016431;28;20118;-83
2022/10/10 06:05:54;;;;;;;2.72;0.60;;;7.10;99.90;;;;;;5030471;28;20465;-83
2022/10/10 06:08:19;;;;;;;1.60;0.80;;;7.10;99.90;;;;;;5030995;28;20131;-83
2022/10/10 06:10:45;;;;;;;2.78;0.70;;;7.10;99.90;;;;;;5031667;28;20056;-83
2022/10/10 06:13:13;;;;;;;2.35;0.57;;;7.10;99.90;;;;;;5031382;28;20457;-83
2022/10/10 06:15:39;;;;;;;1.95;0.70;;;7.10;99.90;;;;;;5049167;28;20128;-82
2022/10/10 06:18:05;;;;;;;2.22;0.82;;;7.00;99.90;;;;;;5030728;28;20141;-83
2022/10/10 06:20:34;;;;;;;3.65;0.80;;;7.00;99.90;;;;;;5063863;28;20057;-83
2022/10/10 06:23:00;;;;;;;1.43;0.60;;;7.00;99.90;;;;;;5030829;28;20119;-82
2022/10/10 06:25:25;;;;;;;2.05;0.70;;;7.20;99.90;;;;;;5030725;28;20113;-82
2022/10/10 06:27:51;;;;;;;1.65;0.75;;;7.20;99.90;;;;;;5047714;28;20040;-83
2022/10/10 06:30:17;;;;;;;1.60;0.60;;;7.10;99.90;;;;;;5030951;28;20029;-83
2022/10/10 06:32:42;;;;;;;2.03;0.73;;;7.00;99.90;;;;;;5049183;28;20028;-83
2022/10/10 06:35:08;;;;;;;2.63;0.77;;;7.10;99.90;;;;;;5048013;28;20095;-84
2022/10/10 06:37:34;;;;;;;2.65;0.70;;;7.00;99.90;;;;;;5030692;28;20032;-84
2022/10/10 06:40:00;;;;;;;3.28;0.70;;;7.00;99.90;;;;;;5014048;28;20021;-83
2022/10/10 06:42:25;;;;;;;6.43;1.00;;;7.10;99.90;;;;;;5013503;28;20076;-83
2022/10/10 06:44:56;;;;;;;2.63;0.90;;;7.20;99.90;;;;;;5030629;28;20108;-84
2022/10/10 06:47:22;;;;;;;1.83;0.60;;;7.20;99.90;;;;;;5014012;28;20132;-83
2022/10/10 06:49:47;;;;;;;2.92;0.77;;;7.30;99.90;;;;;;5063930;28;20127;-84
2022/10/10 06:52:13;;;;;;;2.35;0.60;;;7.20;99.90;;;;;;5048263;28;20457;-84
2022/10/10 06:54:39;;;;;;;2.10;0.75;;;7.30;99.90;;;;;;5030154;28;20033;-84
2022/10/10 06:57:04;;;;;;;2.15;0.80;;;7.40;99.90;;;;;;5063309;28;20075;-84
2022/10/10 06:59:30;;;;;;;3.38;0.90;;;7.50;99.90;;;;;;5010450;28;20021;-84
2022/10/10 07:01:56;;;;;;;2.78;0.90;;;7.50;99.90;;;;;;5030330;28;20389;-84
2022/10/10 07:04:22;;;;;;;2.70;0.80;;;7.60;99.90;;;;;;5030000;28;20141;-83
2022/10/10 07:06:47;;;;;;;1.88;0.60;;;7.70;99.90;;;;;;5047298;28;20044;-83
2022/10/10 07:09:13;;;;;;;1.50;0.52;;;7.60;99.90;;;;;;5046140;28;20069;-84
2022/10/10 07:11:44;;;;;;;2.38;0.50;;;7.60;99.90;;;;;;5030291;28;20464;-83
2022/10/10 07:14:10;;;;;;;2.28;0.80;;;7.60;99.90;;;;;;5048060;28;20083;-84
2022/10/10 07:16:36;;;;;;;1.83;0.50;;;7.80;99.90;;;;;;5030402;28;20029;-84
2022/10/10 07:19:01;;;;;;;3.78;1.00;;;8.00;99.90;;;;;;5063864;28;20033;-84
2022/10/10 07:21:27;;;;;;;2.03;0.80;;;8.20;99.90;;;;;;5029281;28;20393;-84
2022/10/10 07:23:53;;;;;;;3.47;0.70;;;8.30;99.90;;;;;;5063102;28;20630;-84
2022/10/10 07:26:21;;;;;;;3.90;0.80;;;8.40;99.90;;;;;;5029979;28;20025;-84
2022/10/10 07:28:47;;;;;;;1.90;0.65;;;8.50;99.90;;;;;;5029725;28;20485;-84
2022/10/10 07:31:14;;;;;;;2.83;0.90;;;8.60;99.90;;;;;;5012351;28;20036;-84
2022/10/10 07:33:44;;;;;;;2.72;0.90;;;8.90;99.90;;;;;;5046589;28;20028;-84
2022/10/10 07:36:09;;;;;;;2.97;0.82;;;9.10;99.90;;;;;;5029869;28;20126;-84
2022/10/10 07:38:36;;;;;;;4.10;1.20;;;9.20;99.90;;;;;;5037015;28;20079;-84
2022/10/10 07:41:07;;;;;;;3.05;1.00;;;9.50;99.90;;;;;;5027686;28;20021;-83
2022/10/10 07:43:33;;;;;;;5.45;1.40;;;9.70;99.90;;;;;;5013162;28;20045;-84
2022/10/10 07:45:59;;;;;;;2.97;0.77;;;9.70;99.90;;;;;;5047846;28;20024;-84
2022/10/10 07:48:25;;;;;;;1.92;0.70;;;9.90;99.90;;;;;;5046443;28;20492;-84
2022/10/10 07:50:50;;;;;;;1.50;0.80;;;10.00;99.90;;;;;;5030443;28;20033;-84
2022/10/10 07:53:16;;;;;;;2.65;0.80;;;10.10;99.90;;;;;;5047083;28;20057;-84
2022/10/10 07:55:43;;;;;;;3.13;0.98;;;10.20;99.90;;;;;;5027600;28;20048;-84
2022/10/10 07:58:12;;;;;;;2.35;0.77;;;10.20;99.90;;;;;;5035373;28;20083;-84
2022/10/10 08:00:40;;;;;;;2.97;0.90;;;10.10;99.90;;;;;;5047738;28;20025;-84
2022/10/10 08:03:07;;;;;;;3.97;1.08;;;10.40;99.90;;;;;;5020385;28;20310;-85
2022/10/10 08:05:33;;;;;;;3.55;0.88;;;10.70;99.90;;;;;;5062235;28;20053;-84
2022/10/10 08:07:59;;;;;;;2.17;0.85;;;10.90;99.90;;;;;;5063350;28;20067;-84
2022/10/10 08:10:24;;;;;;;3.47;0.88;;;11.10;99.90;;;;;;5028904;28;20139;-84
2022/10/10 08:12:50;;;;;;;2.72;1.10;;;11.20;99.90;;;;;;5029895;28;20168;-85
2022/10/10 08:15:16;;;;;;;2.58;1.10;;;11.30;99.90;;;;;;5028933;28;20526;-84
2022/10/10 08:17:41;;;;;;;2.53;0.70;;;11.50;99.90;;;;;;5029697;28;20045;-85
2022/10/10 08:20:08;;;;;;;2.97;1.25;;;11.80;99.90;;;;;;5046469;28;20033;-84
2022/10/10 08:22:33;;;;;;;4.13;1.08;;;11.90;99.90;;;;;;5046428;28;20047;-85
2022/10/10 08:24:59;;;;;;;5.25;1.13;;;12.20;99.90;;;;;;5047506;28;20026;-84
2022/10/10 08:27:24;;;;;;;2.38;0.80;;;12.50;99.90;;;;;;5029419;28;20058;-84
2022/10/10 08:29:50;;;;;;;3.25;0.88;;;12.70;99.90;;;;;;5013114;28;20067;-85
2022/10/10 08:32:16;;;;;;;2.95;1.40;;;12.80;99.90;;;;;;5062779;28;20476;-84
2022/10/10 08:34:42;;;;;;;3.83;1.63;;;12.70;99.90;;;;;;5045884;28;20029;-85
2022/10/10 08:37:08;;;;;;;3.97;1.92;;;12.70;99.90;;;;;;5012732;28;20029;-84
2022/10/10 08:39:33;;;;;;;3.67;1.42;;;12.80;99.90;;;;;;5046915;28;20414;-84
2022/10/10 08:42:01;;;;;;;3.33;1.27;;;13.10;99.90;;;;;;5045878;28;20045;-84
2022/10/10 08:44:42;;;;;;;2.20;1.00;;;13.20;99.90;;;;;;5047104;28;20017;-86
2022/10/10 08:47:14;;;;;;;4.65;0.95;;;13.10;99.90;;;;;;5027773;28;20556;-85
2022/10/10 08:49:53;;;;;;;3.47;0.80;;;13.10;99.90;;;;;;5029026;28;20033;-85
2022/10/10 08:52:49;;;;;;;2.03;1.00;;;13.10;99.90;;;;;;5008966;28;20028;-85
2022/10/10 08:55:31;;;;;;;3.80;1.15;;;13.10;99.90;;;;;;5009828;28;20040;-85
2022/10/10 08:58:04;;;;;;;2.30;1.02;;;13.00;99.90;;;;;;5047203;28;20043;-85
2022/10/10 09:00:37;;;;;;;3.58;1.10;;;13.20;99.90;;;;;;5029156;28;20182;-84
2022/10/10 09:03:11;;;;;;;3.25;1.17;;;13.20;99.90;;;;;;5034949;28;20437;-84
2022/10/10 09:05:39;;;;;;;2.40;0.90;;;13.20;99.90;;;;;;5028571;28;20025;-84
2022/10/10 09:08:21;;;;;;;2.50;0.82;;;13.30;99.90;;;;;;5029249;28;20063;-84
2022/10/10 09:11:11;;;;;;;3.05;0.98;;;13.40;99.90;;;;;;5061648;28;20021;-83
2022/10/10 09:13:57;;;;;;;2.95;0.90;;;13.60;99.90;;;;;;5024055;28;20234;-83
2022/10/10 09:16:39;;;;;;;3.65;1.05;;;13.80;99.90;;;;;;5046412;28;20044;-83
2022/10/10 09:19:27;;;;;;;3.50;1.15;;;13.70;99.90;;;;;;5062112;28;20398;-84
2022/10/10 09:21:58;;;;;;;2.53;0.60;;;13.80;99.90;;;;;;5028223;28;20124;-84
2022/10/10 09:24:40;;;;;;;3.03;1.30;;;13.80;99.90;;;;;;5027864;28;20055;-83
2022/10/10 09:27:11;;;;;;;2.70;0.90;;;14.00;99.90;;;;;;5047032;28;20029;-83
2022/10/10 09:29:53;;;;;;;4.68;1.33;;;14.20;99.90;;;;;;5013767;28;20211;-84
2022/10/10 09:32:29;;;;;;;2.80;1.67;;;14.20;99.90;;;;;;5050343;28;20113;-84
2022/10/10 09:35:15;;;;;;;4.45;1.60;;;14.30;99.90;;;;;;5032436;28;20053;-84
2022/10/10 09:37:43;;;;;;;3.45;1.00;;;14.40;99.90;;;;;;5065861;28;20073;-84
2022/10/10 09:40:36;;;;;;;3.20;1.30;;;14.40;99.90;;;;;;5032032;28;20033;-84
2022/10/10 09:43:12;;;;;;;4.15;1.33;;;14.40;99.90;;;;;;5048738;28;20053;-84
2022/10/10 09:45:45;;;;;;;2.05;0.98;;;14.70;99.90;;;;;;5065226;28;20096;-83
2022/10/10 09:48:11;;;;;;;3.00;1.00;;;15.00;99.90;;;;;;5050013;28;20035;-84
2022/10/10 09:50:38;;;;;;;3.25;0.90;;;15.20;99.90;;;;;;5031940;28;20033;-85
2022/10/10 09:53:03;;;;;;;2.10;0.70;;;15.30;99.90;;;;;;5032425;28;20029;-84
2022/10/10 09:55:34;;;;;;;2.33;0.73;;;15.70;99.90;;;;;;5048128;28;20492;-85
2022/10/10 09:58:32;;;;;;;2.00;0.95;;;15.90;99.90;;;;;;5047744;28;20569;-84
2022/10/10 10:01:26;;;;;;;4.10;1.02;;;15.80;99.90;;;;;;5007199;28;20052;-84
2022/10/10 10:04:12;;;;;;;3.10;0.85;;;15.50;99.90;;;;;;5064934;28;20053;-83
2022/10/10 10:06:43;;;;;;;2.70;1.40;;;15.70;99.90;;;;;;5013412;28;20029;-84
2022/10/10 10:09:13;;;;;;;;;;;15.70;99.90;;;;;;5015317;28;20362;-84
2022/10/10 10:11:38;;;;;;;2.80;0.90;;;16.10;99.90;;;;;;5031608;28;20025;-84
2022/10/10 10:14:04;;;;;;;3.65;1.17;;;16.20;99.90;;;;;;5031311;28;20045;-85
2022/10/10 10:16:37;;;;;;;3.97;1.05;;;16.50;99.90;;;;;;5064743;28;20033;-84
2022/10/10 10:19:03;;;;;;;3.60;1.20;;;16.40;99.90;;;;;;5030897;28;20052;-82
2022/10/10 10:21:30;;;;;;;6.47;1.98;;;16.20;99.90;;;;;;5047833;28;20056;-83
2022/10/10 10:24:01;;;;;;;3.25;1.30;;;15.90;99.90;;;;;;5030940;28;20123;-84
2022/10/10 10:26:45;;;;;;;2.90;0.90;;;16.00;99.90;;;;;;5016225;28;20425;-83
2022/10/10 10:29:26;;;;;;;6.10;1.95;;;16.20;99.90;;;;;;5030315;28;20028;-82
2022/10/10 10:32:22;;;;;;;3.65;1.13;;;16.30;99.90;;;;;;5030524;28;20060;-84
2022/10/10 10:34:59;;;;;;;3.67;1.08;;;16.30;99.90;;;;;;5028972;28;20400;-83
2022/10/10 10:37:39;;;;;;;2.72;0.60;;;16.40;99.90;;;;;;5047547;28;20039;-83
2022/10/10 10:40:37;;;;;;;3.03;0.75;;;16.50;99.90;;;;;;5064263;28;20036;-83
2022/10/10 10:43:29;;;;;;;2.95;1.02;;;16.50;99.90;;;;;;5045846;28;20088;-83
2022/10/10 10:45:58;;;;;;;3.67;0.80;;;16.60;99.90;;;;;;5030888;28;20133;-84
2022/10/10 10:48:37;;;;;;;2.00;0.80;;;16.50;99.90;;;;;;5063741;28;20061;-82
2022/10/10 10:51:26;;;;;;;5.13;1.88;;;16.60;99.90;;;;;;5030451;28;20044;-83
2022/10/10 10:54:14;;;;;;;4.15;1.20;;;16.40;99.90;;;;;;5046556;28;20090;-84
2022/10/10 10:57:08;;;;;;;1.60;0.60;;;16.60;99.90;;;;;;5061985;28;20059;-83
2022/10/10 11:00:08;;;;;;;2.80;0.80;;;16.70;99.90;;;;;;5026966;28;20084;-83
2022/10/10 11:02:52;;;;;;;2.63;0.55;;;16.80;99.90;;;;;;5046843;28;20131;-83
2022/10/10 11:05:42;;;;;;;4.72;1.73;;;16.80;99.90;;;;;;5013783;28;20075;-84
2022/10/10 11:08:23;;;;;;;;;;;16.60;99.90;;;;;;5045066;28;20026;-83
2022/10/10 11:11:29;;;;;;;5.30;1.05;;;16.70;99.90;;;;;;5011723;28;19920;-84
2022/10/10 11:14:09;;;;;;;4.25;1.13;;;16.60;99.90;;;;;;5029919;28;20029;-83
2022/10/10 11:17:04;;;;;;;4.78;1.40;;;16.40;99.90;;;;;;5047358;28;20028;-83
2022/10/10 11:20:19;;;;;;;4.53;1.67;;;16.50;99.90;;;;;;5057179;28;20094;-83
2022/10/10 11:22:53;;;;;;;4.38;1.02;;;16.60;99.90;;;;;;5006152;28;20532;-85
2022/10/10 11:25:22;;;;;;;4.53;1.75;;;16.90;99.90;;;;;;5004917;28;20025;-84
2022/10/10 11:28:03;;;;;;;5.55;1.73;;;16.80;99.90;;;;;;5005693;28;20045;-84
2022/10/10 11:30:34;;;;;;;4.85;1.85;;;16.60;99.90;;;;;;4991873;28;20030;-84
2022/10/10 11:33:11;;;;;;;5.72;3.10;;;16.60;99.90;;;;;;4986124;28;20041;-84
2022/10/10 11:35:47;;;;;;;7.05;3.03;;;16.30;99.90;;;;;;5005791;28;20729;-84
2022/10/10 11:38:21;;;;;;;4.13;1.50;;;16.30;99.90;;;;;;5005736;28;20033;-84
2022/10/10 11:40:58;;;;;;;3.05;1.42;;;16.40;99.90;;;;;;5005748;28;20216;-87
2022/10/10 11:43:44;;;;;;;3.88;1.30;;;16.60;99.90;;;;;;5002666;28;20081;-83
2022/10/10 11:46:45;;;;;;;6.85;1.95;;;16.40;99.90;;;;;;5004859;28;20117;-82
2022/10/10 11:49:12;;;;;;;2.60;1.00;;;16.40;99.90;;;;;;4946223;28;20488;-82
2022/10/10 11:51:48;;;;;;;8.77;1.60;;;16.40;99.90;;;;;;4936837;29;20042;-82
2022/10/10 11:54:25;;;;;;;5.10;1.90;;;16.70;99.90;;;;;;4946800;29;20183;-83
2022/10/10 11:56:56;;;;;;;5.45;2.47;;;17.10;99.90;;;;;;4925675;29;20334;-83
2022/10/10 11:59:28;;;;;;;6.75;2.95;;;17.10;99.90;;;;;;4944420;28;20073;-83
2022/10/10 12:01:58;;;;;;;4.60;1.83;;;17.10;99.90;;;;;;4965774;28;20161;-83
2022/10/10 12:04:24;;;;;;;5.50;2.53;;;17.10;99.90;;;;;;4946591;28;20085;-82
2022/10/10 12:07:01;;;;;;;6.45;2.45;;;17.00;99.90;;;;;;4937836;28;20121;-82
2022/10/10 12:09:36;;;;;;;4.75;1.77;;;16.90;99.90;;;;;;4965088;28;20066;-82
2022/10/10 12:12:06;;;;;;;6.50;1.73;;;17.00;99.90;;;;;;4981936;28;20054;-84
2022/10/10 12:14:36;;;;;;;6.88;2.10;;;17.20;99.90;;;;;;4966625;28;20036;-82
2022/10/10 12:17:02;;;;;;;;;;;17.30;99.90;;;;;;4949690;28;20027;-82
2022/10/10 12:19:28;;;;;;;6.78;2.03;;;17.30;99.90;;;;;;4949964;28;20548;-83
2022/10/10 12:22:04;;;;;;;4.47;1.45;;;17.10;99.90;;;;;;4950135;28;20210;-82
2022/10/10 12:25:08;;;;;;;5.13;1.33;;;17.10;99.90;;;;;;4949830;28;20039;-83
2022/10/10 12:27:46;;;;;;;4.55;1.40;;;17.10;99.90;;;;;;5029560;28;20100;-86
2022/10/10 12:30:23;;;;;;;5.03;2.00;;;17.40;99.90;;;;;;5012262;28;20032;-86
2022/10/10 12:32:52;;;;;;;5.78;1.98;;;17.70;99.90;;;;;;5027929;28;20082;-82
2022/10/10 12:35:37;;;;;;;5.38;2.17;;;17.50;99.90;;;;;;5028592;28;20801;-82
2022/10/10 12:38:19;;;;;;;6.43;2.47;;;17.40;99.90;;;;;;5013512;28;20045;-82
2022/10/10 12:41:10;;;;;;;7.93;2.25;;;17.10;99.90;;;;;;5045510;28;20032;-83
2022/10/10 12:43:39;;;;;;;6.25;1.80;;;17.20;99.90;;;;;;5026711;28;20060;-83
2022/10/10 12:46:17;;;;;;;5.85;1.48;;;17.20;99.90;;;;;;5028842;28;20025;-83
2022/10/10 12:48:43;;;;;;;5.57;1.67;;;17.60;99.90;;;;;;5046193;28;20029;-82
2022/10/10 12:51:21;;;;;;;14.32;2.40;;;17.60;99.90;;;;;;5045824;28;20021;-83
2022/10/10 12:53:55;;;;;;;9.13;2.30;;;17.40;99.90;;;;;;5046960;28;20071;-82
2022/10/10 12:56:44;;;;;;;7.63;2.40;;;17.30;99.90;;;;;;5028690;28;20099;-84
2022/10/10 12:59:22;;;;;;;8.40;2.33;;;17.00;99.90;;;;;;5028960;28;20026;-83
2022/10/10 13:01:57;;;;;;;6.15;2.00;;;17.00;99.90;;;;;;5049505;28;20161;-85
2022/10/10 13:04:24;;;;;;;6.35;2.25;;;16.90;99.90;;;;;;5031927;28;20515;-85
2022/10/10 13:06:55;;;;;;;12.63;2.40;;;16.80;99.90;;;;;;5049556;28;20025;-85
2022/10/10 13:09:31;;;;;;;8.70;2.63;;;16.70;99.90;;;;;;5051211;28;20052;-86
2022/10/10 13:12:05;;;;;;;6.05;1.90;;;16.60;99.90;;;;;;5065086;28;20119;-84
2022/10/10 13:14:43;;;;;;;5.25;2.35;;;16.50;99.90;;;;;;5014289;28;20366;-84